Ana Sayfa
METAR-TAF:

METAR-TAF

Havaalanları :

Logan County Airport

Lincoln, Illinois, Amerika Birleşik Devletleri

Enlem: 40-09-31N, Boylam: 089-20-06W, yükseklik: 182 m

Güncel hava durumu gözlemi

Rapor saat 11:55 UTC de 27 dakika önce yapıldı.
Rüzgar güneydan 11 kt ve 16 kt'a kadar ani rüzgarlar
Sıcaklık 25°C
Nem 79%
Basınç 1016 hPa
Görüş mesafesi: 16.1 km
1700 ft yükseklikte parçalı çok bulutlu
2100 ft yükseklikte parçalı çok bulutlu
11000 ft yükseklikte çok bulutlu

METAR: KAAA 181155Z AUTO 18011G16KT 10SM BKN017 BKN021 OVC110 25/21 A3000 RMK AO2 T02450211 10250 20238

Saat: 07:22 (12:22 UTC)


TAF: eksik

4.000'den fazla havaalanı için hava durumu gözlemleri ve tahminleri (METAR ve TAF raporları).

Kullanılabilir istasyonlar harita üzerinde sarı ve kırmızı noktalarla gösterilir.

İstasyonun adını görmek için fareyi noktanın üzerinde gezdirin.

Sonrasında hava gözlem ve tahminlerini görmek için tıklayın.

Haritayı değiştirmek için: yaklaştırmak için siyah artı işaretli yeşil düğmeye ve uzaklaştırmak için de eksi işaretli düğmeye hızla tıklayın; bitişik haritalar için yeşil okları kullanın.


METAR-TAF: